Green Creek, New Jersey
Current Conditions -  °F | °C
As of 7:35 PM on Friday 24 Oct 2014 (Local Time) from KWWD Reporting Station
Clear Clear  
Wind Chill: 63°   Ceiling: Unl
Heat Index: 63°   Visibility: 10mi
Dew Point: 46°   Wind: 8mph
Humidity: 55%   Direction: 280°W
Pressure: 29.87"   Gusts: NA
Location:  39.05°N, 74.9°W
Report Text: KWWD 242335Z AUTO 28007KT 10SM CLR 17/08 A2987 RMK AO1
Loading
Personal Weather Stations






























Interactive Weather Map
Tropical Storm Tracking
New forecast layout! Learn more

10-Day Weather Forecast

Advertisements
Track Severe Weather on mobile